Elmsdale, Canada
Current Conditions -  °F | °C
As of 10:00 AM on Wednesday 26 Nov 2014 (Local Time) from CYHZ Reporting Station
Overcast Overcast  
Wind Chill: 40°   Ceiling: 14000
Heat Index: 45°   Visibility: 15mi
Dew Point: 32°   Wind: 9mph
Humidity: 61%   Direction: 310°NW
Pressure: 30.18"   Gusts: NA
Location:  44.97°N, 63.52°W
Report Text: CYHZ 261400Z 31008KT 15SM OVC140 07/00 A3018 RMK AC8 SLP222
Loading
Personal Weather Stations






























Interactive Weather Map New forecast layout! Learn more

10-Day Weather Forecast

Advertisements
Track Severe Weather on mobile